createdAt,value
2022-12-03T00:01:20.442Z,75.24
2022-12-03T00:03:47.472Z,75.65
2022-12-03T00:06:14.603Z,75.18
2022-12-03T00:08:41.418Z,74.94
2022-12-03T00:11:08.356Z,73.98
2022-12-03T00:13:37.401Z,74.12
2022-12-03T00:16:04.877Z,74.32
2022-12-03T00:18:31.954Z,74.60
2022-12-03T00:20:58.876Z,75.27
2022-12-03T00:23:28.113Z,76.80
2022-12-03T00:25:55.041Z,75.90
2022-12-03T00:28:21.961Z,75.29
2022-12-03T00:30:54.213Z,75.60
2022-12-03T00:33:24.088Z,74.64
2022-12-03T00:35:55.826Z,74.53
2022-12-03T00:38:22.852Z,74.58
2022-12-03T00:40:51.981Z,74.92
2022-12-03T00:43:21.641Z,74.57
2022-12-03T00:45:48.552Z,74.06
2022-12-03T00:48:15.496Z,73.83
2022-12-03T00:50:42.482Z,73.63
2022-12-03T00:53:12.026Z,72.34
2022-12-03T00:55:41.055Z,73.53
2022-12-03T00:58:10.946Z,74.06
2022-12-03T01:00:40.262Z,72.41
2022-12-03T01:03:07.208Z,73.45
2022-12-03T01:05:36.667Z,73.36
2022-12-03T01:08:03.796Z,74.49
2022-12-03T01:10:33.356Z,73.43
2022-12-03T01:13:02.928Z,73.32
2022-12-03T01:15:31.936Z,73.71
2022-12-03T01:18:01.037Z,74.00
2022-12-03T01:20:30.224Z,73.38
2022-12-03T01:22:57.199Z,73.68
2022-12-03T01:25:24.249Z,74.40
2022-12-03T01:27:51.216Z,73.93
2022-12-03T01:32:47.637Z,73.09
2022-12-03T01:35:17.072Z,72.69
2022-12-03T01:37:46.116Z,72.76
2022-12-03T01:40:21.105Z,72.37
2022-12-03T01:42:51.168Z,71.75
2022-12-03T01:45:23.984Z,71.96
2022-12-03T01:47:55.998Z,71.93
2022-12-03T01:50:30.933Z,72.90
2022-12-03T01:53:02.021Z,72.88
2022-12-03T01:55:29.498Z,72.54
2022-12-03T01:58:00.180Z,73.05
2022-12-03T02:00:30.732Z,72.71
2022-12-03T02:03:07.946Z,71.99
2022-12-03T02:05:34.983Z,71.71
2022-12-03T02:08:02.217Z,72.79
2022-12-03T02:10:35.094Z,71.71
2022-12-03T02:13:08.890Z,70.95
2022-12-03T02:15:39.462Z,72.23
2022-12-03T02:18:08.442Z,72.54
2022-12-03T02:20:49.214Z,72.03
2022-12-03T02:23:37.656Z,72.50
2022-12-03T02:26:04.761Z,71.81
2022-12-03T02:28:34.367Z,72.50
2022-12-03T02:31:05.430Z,72.49
2022-12-03T02:33:33.211Z,71.93
2022-12-03T02:36:06.304Z,72.36
2022-12-03T02:38:35.831Z,72.08
2022-12-03T02:41:33.525Z,71.48
2022-12-03T02:44:00.809Z,72.46
2022-12-03T02:46:30.271Z,72.61
2022-12-03T02:48:57.810Z,72.34
2022-12-03T02:51:27.214Z,71.48
2022-12-03T02:53:56.339Z,72.48
2022-12-03T02:56:27.787Z,72.63
2022-12-03T02:58:58.828Z,72.39
2022-12-03T03:01:26.222Z,71.89
2022-12-03T03:03:58.509Z,73.11
2022-12-03T03:06:25.998Z,73.67
2022-12-03T03:08:55.393Z,73.53
2022-12-03T03:11:22.397Z,72.99
2022-12-03T03:13:49.447Z,73.37
2022-12-03T03:16:16.633Z,73.81
2022-12-03T03:18:43.672Z,73.27
2022-12-03T03:21:11.788Z,72.60
2022-12-03T03:23:43.328Z,73.38
2022-12-03T03:26:16.706Z,72.14
2022-12-03T03:28:48.248Z,73.65
2022-12-03T03:31:23.179Z,74.50
2022-12-03T03:33:51.147Z,74.60
2022-12-03T03:36:19.951Z,74.47
2022-12-03T03:38:51.794Z,74.52
2022-12-03T03:41:20.945Z,73.52
2022-12-03T03:43:50.145Z,73.74
2022-12-03T03:46:20.518Z,73.95
2022-12-03T03:48:48.756Z,73.50
2022-12-03T03:51:19.473Z,73.64
2022-12-03T03:53:48.616Z,74.35
2022-12-03T03:56:17.991Z,74.62
2022-12-03T03:58:45.003Z,74.69
2022-12-03T04:01:14.457Z,74.02
2022-12-03T04:03:41.737Z,73.83
2022-12-03T04:06:09.197Z,73.87
2022-12-03T04:08:38.707Z,73.63
2022-12-03T04:11:24.422Z,73.04
2022-12-03T04:13:54.256Z,73.11
2022-12-03T04:16:21.269Z,73.48
2022-12-03T04:18:55.515Z,72.58
2022-12-03T04:21:42.873Z,72.58
2022-12-03T04:24:12.540Z,73.95
2022-12-03T04:26:58.020Z,74.12
2022-12-03T04:29:24.969Z,73.45
2022-12-03T04:32:10.824Z,74.08
2022-12-03T04:34:58.622Z,74.14
2022-12-03T04:37:25.968Z,73.47
2022-12-03T04:39:53.111Z,73.79
2022-12-03T04:42:22.257Z,74.18
2022-12-03T04:44:50.465Z,75.27
2022-12-03T04:47:22.369Z,75.45
2022-12-03T04:49:53.981Z,75.02
2022-12-03T04:52:23.759Z,74.17
2022-12-03T04:54:56.054Z,74.35
2022-12-03T04:57:27.906Z,73.64
2022-12-03T04:59:57.820Z,73.23
2022-12-03T05:02:24.933Z,73.46
2022-12-03T05:04:52.246Z,74.03
2022-12-03T05:07:24.497Z,73.99
2022-12-03T05:09:51.436Z,73.58
2022-12-03T05:12:18.320Z,73.73
2022-12-03T05:14:47.883Z,73.03
2022-12-03T05:17:17.413Z,73.80
2022-12-03T05:20:03.212Z,74.00
2022-12-03T05:22:30.090Z,74.93
2022-12-03T05:24:57.251Z,75.37
2022-12-03T05:27:24.482Z,74.83
2022-12-03T05:29:54.268Z,75.30
2022-12-03T05:32:23.564Z,75.29
2022-12-03T05:34:53.343Z,74.99
2022-12-03T05:37:22.421Z,74.15
2022-12-03T05:39:49.504Z,73.13
2022-12-03T05:42:34.764Z,74.62
2022-12-03T05:45:04.285Z,74.24
2022-12-03T05:47:33.636Z,74.04
2022-12-03T05:50:03.308Z,74.23
2022-12-03T05:52:30.331Z,73.96
2022-12-03T05:54:57.346Z,73.89
2022-12-03T05:57:28.778Z,74.25
2022-12-03T05:59:58.931Z,73.38
2022-12-03T06:02:28.246Z,74.00
2022-12-03T06:05:00.153Z,74.19
2022-12-03T06:07:29.223Z,74.56
2022-12-03T06:09:56.241Z,74.35
2022-12-03T06:12:23.310Z,73.89
2022-12-03T06:14:50.529Z,72.76
2022-12-03T06:17:17.698Z,72.83
2022-12-03T06:19:47.300Z,72.51
2022-12-03T06:22:14.462Z,72.13
2022-12-03T06:24:44.525Z,72.15
2022-12-03T06:27:11.856Z,73.57
2022-12-03T06:29:38.923Z,73.60
2022-12-03T06:32:06.202Z,73.13
2022-12-03T06:34:33.352Z,72.84
2022-12-03T06:37:02.776Z,72.31
2022-12-03T06:39:29.893Z,73.67
2022-12-03T06:41:59.274Z,74.90
2022-12-03T06:44:26.313Z,73.63
2022-12-03T06:46:53.437Z,74.15
2022-12-03T06:49:21.197Z,73.60
2022-12-03T06:51:48.205Z,73.31
2022-12-03T06:54:15.169Z,73.10
2022-12-03T06:56:45.396Z,72.87
2022-12-03T06:59:12.837Z,73.79
2022-12-03T07:01:44.587Z,73.10
2022-12-03T07:04:11.590Z,73.16
2022-12-03T07:06:38.610Z,72.40
2022-12-03T07:09:07.644Z,73.04
2022-12-03T07:11:40.427Z,73.37
2022-12-03T07:14:11.185Z,74.01
2022-12-03T07:16:43.653Z,73.83
2022-12-03T07:19:13.721Z,73.44
2022-12-03T07:21:40.750Z,74.02
2022-12-03T07:24:07.894Z,73.81
2022-12-03T07:26:40.451Z,72.88
2022-12-03T07:29:07.726Z,72.95
2022-12-03T07:31:34.889Z,73.51
2022-12-03T07:34:06.392Z,74.18
2022-12-03T07:36:35.571Z,74.39
2022-12-03T07:39:02.597Z,73.76
2022-12-03T07:41:29.608Z,74.23
2022-12-03T07:43:59.157Z,73.71
2022-12-03T07:46:28.408Z,73.06
2022-12-03T07:48:57.715Z,73.77
2022-12-03T07:51:31.967Z,73.20
2022-12-03T07:53:59.352Z,73.82
2022-12-03T07:56:26.434Z,73.46
2022-12-03T07:58:55.524Z,73.26
2022-12-03T08:01:22.540Z,72.49
2022-12-03T08:03:49.439Z,72.42
2022-12-03T08:06:16.519Z,72.90
2022-12-03T08:08:43.772Z,72.63
2022-12-03T08:11:17.007Z,72.65
2022-12-03T08:13:46.649Z,72.85
2022-12-03T08:16:21.033Z,72.03
2022-12-03T08:18:49.569Z,71.30
2022-12-03T08:21:21.833Z,71.12
2022-12-03T08:23:51.421Z,70.68
2022-12-03T08:26:25.580Z,71.38
2022-12-03T08:28:57.467Z,70.78
2022-12-03T08:31:32.291Z,71.11
2022-12-03T08:34:20.682Z,69.08
2022-12-03T08:36:51.177Z,68.18
2022-12-03T08:39:27.814Z,67.82
2022-12-03T08:42:21.164Z,67.48
2022-12-03T08:44:48.328Z,66.93
2022-12-03T08:47:24.424Z,68.43
2022-12-03T08:50:11.792Z,68.79
2022-12-03T08:52:40.784Z,68.43
2022-12-03T08:55:40.637Z,69.85
2022-12-03T08:58:23.418Z,70.49
2022-12-03T09:01:06.211Z,70.49
2022-12-03T09:03:36.695Z,70.47
2022-12-03T09:06:06.180Z,70.40
2022-12-03T09:08:33.111Z,70.73
2022-12-03T09:11:01.283Z,70.14
2022-12-03T09:13:30.462Z,70.03
2022-12-03T09:15:57.373Z,71.26
2022-12-03T09:18:27.552Z,70.84
2022-12-03T09:20:57.190Z,71.03
2022-12-03T09:23:24.318Z,69.86
2022-12-03T09:25:51.325Z,70.70
2022-12-03T09:28:18.398Z,69.81
2022-12-03T09:30:45.481Z,69.71
2022-12-03T09:33:14.924Z,69.94
2022-12-03T09:35:41.867Z,70.45
2022-12-03T09:38:08.841Z,70.33
2022-12-03T09:40:38.171Z,70.37
2022-12-03T09:43:08.328Z,70.85
2022-12-03T09:45:37.619Z,70.54
2022-12-03T09:48:07.157Z,69.75
2022-12-03T09:50:44.500Z,69.93
2022-12-03T09:53:18.360Z,70.32
2022-12-03T09:55:49.507Z,69.07
2022-12-03T09:58:23.129Z,70.20
2022-12-03T10:00:54.489Z,69.91
2022-12-03T10:03:29.675Z,70.33
2022-12-03T10:05:59.665Z,71.10
2022-12-03T10:08:33.005Z,69.67
2022-12-03T10:11:00.029Z,69.79
2022-12-03T10:13:30.927Z,70.08
2022-12-03T10:16:00.401Z,70.64
2022-12-03T10:18:39.981Z,71.91
2022-12-03T10:21:37.676Z,70.47
2022-12-03T10:24:34.589Z,70.88
2022-12-03T10:27:34.987Z,70.36
2022-12-03T10:30:08.231Z,70.95
2022-12-03T10:32:45.413Z,70.38
2022-12-03T10:35:37.727Z,69.83
2022-12-03T10:38:06.962Z,70.12
2022-12-03T10:40:39.431Z,70.88
2022-12-03T10:43:19.840Z,70.70
2022-12-03T10:46:01.975Z,71.04
2022-12-03T10:48:32.932Z,70.40
2022-12-03T10:51:21.827Z,70.10
2022-12-03T10:53:52.307Z,68.82
2022-12-03T10:56:25.772Z,68.96
2022-12-03T10:58:56.318Z,67.98
2022-12-03T11:01:26.173Z,67.85
2022-12-03T11:04:02.230Z,69.03
2022-12-03T11:06:33.072Z,68.86
2022-12-03T11:09:03.952Z,68.36
2022-12-03T11:11:35.512Z,68.28
2022-12-03T11:14:04.866Z,67.35
2022-12-03T11:16:41.080Z,67.66
2022-12-03T11:19:13.731Z,68.13
2022-12-03T11:22:05.322Z,69.51
2022-12-03T11:24:37.626Z,68.33
2022-12-03T11:27:04.469Z,68.55
2022-12-03T11:29:57.616Z,68.92
2022-12-03T11:32:45.500Z,70.42
2022-12-03T11:35:16.951Z,70.27
2022-12-03T11:37:43.943Z,70.46
2022-12-03T11:40:19.933Z,69.64
2022-12-03T11:42:48.848Z,69.81
2022-12-03T11:45:30.859Z,69.93
2022-12-03T11:48:24.107Z,69.39
2022-12-03T11:50:53.399Z,69.76
2022-12-03T11:53:26.583Z,69.82
2022-12-03T11:56:13.003Z,69.76
2022-12-03T11:58:43.518Z,70.21
2022-12-03T12:01:10.534Z,70.23
2022-12-03T12:03:54.995Z,70.17
2022-12-03T12:06:26.912Z,70.20
2022-12-03T12:09:00.990Z,69.89
2022-12-03T12:11:33.967Z,70.76
2022-12-03T12:14:12.042Z,71.40
2022-12-03T12:16:55.152Z,69.79
2022-12-03T12:19:42.484Z,69.36
2022-12-03T12:22:18.264Z,69.80
2022-12-03T12:24:51.380Z,70.03
2022-12-03T12:27:21.696Z,70.31
2022-12-03T12:29:56.895Z,71.22
2022-12-03T12:33:08.332Z,71.16
2022-12-03T12:35:37.476Z,70.57
2022-12-03T12:38:07.515Z,71.27
2022-12-03T12:40:43.193Z,70.72
2022-12-03T12:43:27.360Z,71.10
2022-12-03T12:45:58.529Z,71.11
2022-12-03T12:48:31.593Z,71.41
2022-12-03T12:51:18.785Z,71.12
2022-12-03T12:53:46.527Z,72.20
2022-12-03T12:56:31.530Z,70.87
2022-12-03T12:59:12.515Z,70.80
2022-12-03T13:01:41.394Z,70.65
2022-12-03T13:04:23.334Z,70.66
2022-12-03T13:06:57.393Z,71.16
2022-12-03T13:09:26.088Z,71.80
2022-12-03T13:12:04.237Z,72.39
2022-12-03T13:14:39.258Z,73.24
2022-12-03T13:17:26.011Z,73.07
2022-12-03T13:20:05.137Z,72.32
2022-12-03T13:22:34.468Z,72.88
2022-12-03T13:25:58.255Z,72.18
2022-12-03T13:28:21.646Z,72.10
2022-12-03T13:30:48.839Z,71.49
2022-12-03T13:33:26.688Z,71.79
2022-12-03T13:35:57.075Z,72.43
2022-12-03T13:38:26.956Z,74.07
2022-12-03T13:41:02.735Z,74.72
2022-12-03T13:43:32.491Z,74.97
2022-12-03T13:46:00.636Z,74.45
2022-12-03T13:48:35.401Z,74.29
2022-12-03T13:51:27.104Z,73.97
2022-12-03T13:53:57.297Z,73.67
2022-12-03T13:56:33.751Z,73.96
2022-12-03T13:59:01.552Z,73.00
2022-12-03T14:01:31.014Z,73.50
2022-12-03T14:03:57.991Z,73.75
2022-12-03T14:06:27.994Z,73.56
2022-12-03T14:08:57.205Z,73.82
2022-12-03T14:11:44.774Z,74.57
2022-12-03T14:14:12.172Z,75.29
2022-12-03T14:16:41.520Z,74.96
2022-12-03T14:19:08.582Z,74.30
2022-12-03T14:21:38.615Z,74.11
2022-12-03T14:24:06.194Z,74.44
2022-12-03T14:26:33.253Z,74.02
2022-12-03T14:29:03.432Z,74.20
2022-12-03T14:31:33.074Z,73.75
2022-12-03T14:34:00.183Z,73.83
2022-12-03T14:36:30.316Z,72.79
2022-12-03T14:38:57.383Z,73.21
2022-12-03T14:41:45.609Z,72.63
2022-12-03T14:44:17.479Z,72.87
2022-12-03T14:46:47.514Z,72.52
2022-12-03T14:49:14.629Z,72.60
2022-12-03T14:51:41.734Z,73.31
2022-12-03T14:54:11.167Z,75.02
2022-12-03T14:56:38.184Z,75.01
2022-12-03T14:59:07.321Z,74.83
2022-12-03T15:01:34.618Z,74.79
2022-12-03T15:04:04.089Z,74.32
2022-12-03T15:06:33.752Z,73.91
2022-12-03T15:09:00.788Z,72.45
2022-12-03T15:11:27.813Z,72.72
2022-12-03T15:13:54.850Z,73.51
2022-12-03T15:16:22.001Z,73.17
2022-12-03T15:18:48.922Z,72.57
2022-12-03T15:21:16.622Z,72.10
2022-12-03T15:23:46.211Z,71.99
2022-12-03T15:26:13.227Z,72.57
2022-12-03T15:28:44.120Z,72.12
2022-12-03T15:31:16.840Z,73.01
2022-12-03T15:33:48.306Z,71.69
2022-12-03T15:36:19.939Z,71.83
2022-12-03T15:38:46.954Z,71.90
2022-12-03T15:41:29.157Z,72.43
2022-12-03T15:44:04.245Z,72.41
2022-12-03T15:46:33.904Z,73.21
2022-12-03T15:49:01.082Z,73.25
2022-12-03T15:51:28.134Z,73.73
2022-12-03T15:53:55.217Z,73.13
2022-12-03T15:56:22.225Z,73.37
2022-12-03T15:58:49.181Z,71.10
2022-12-03T16:01:18.714Z,72.35
2022-12-03T16:03:45.702Z,72.57
2022-12-03T16:06:14.686Z,72.95
2022-12-03T16:08:44.763Z,73.21
2022-12-03T16:11:11.774Z,73.10
2022-12-03T16:13:41.017Z,73.85
2022-12-03T16:16:10.571Z,73.18
2022-12-03T16:18:37.494Z,72.17
2022-12-03T16:21:04.612Z,72.41
2022-12-03T16:23:31.765Z,73.80
2022-12-03T16:26:01.284Z,73.76
2022-12-03T16:28:28.272Z,73.12
2022-12-03T16:30:55.399Z,73.29
2022-12-03T16:33:27.320Z,72.30
2022-12-03T16:35:57.342Z,72.84
2022-12-03T16:38:24.364Z,72.15
2022-12-03T16:40:51.439Z,72.54
2022-12-03T16:43:18.637Z,72.32
2022-12-03T16:45:56.501Z,73.41
2022-12-03T16:48:25.921Z,73.84
2022-12-03T16:50:56.236Z,74.95
2022-12-03T16:53:25.414Z,75.18
2022-12-03T16:55:52.433Z,74.46
2022-12-03T16:58:21.302Z,73.72
2022-12-03T17:00:49.822Z,72.27
2022-12-03T17:03:20.333Z,72.59
2022-12-03T17:05:47.637Z,74.66
2022-12-03T17:08:15.986Z,72.84
2022-12-03T17:10:44.163Z,73.20
2022-12-03T17:13:12.152Z,72.29
2022-12-03T17:15:42.389Z,73.02
2022-12-03T17:18:09.513Z,73.64
2022-12-03T17:20:37.187Z,73.95
2022-12-03T17:23:04.989Z,74.28
2022-12-03T17:25:32.250Z,74.29
2022-12-03T17:27:59.115Z,73.28
2022-12-03T17:30:26.479Z,75.11
2022-12-03T17:32:53.842Z,75.13
2022-12-03T17:35:20.889Z,74.89
2022-12-03T17:37:50.399Z,75.62
2022-12-03T17:40:19.711Z,75.21
2022-12-03T17:42:51.384Z,75.66
2022-12-03T17:45:18.284Z,75.15
2022-12-03T17:47:47.648Z,75.93
2022-12-03T17:50:14.639Z,75.87
2022-12-03T17:52:41.629Z,75.04
2022-12-03T17:55:14.487Z,74.95
2022-12-03T17:57:52.903Z,74.96
2022-12-03T18:00:20.188Z,74.49
2022-12-03T18:02:47.164Z,73.23
2022-12-03T18:05:14.536Z,72.21
2022-12-03T18:07:44.060Z,75.05
2022-12-03T18:10:11.306Z,76.70
2022-12-03T18:12:38.241Z,76.46
2022-12-03T18:15:10.926Z,76.00
2022-12-03T18:17:37.867Z,74.01
2022-12-03T18:20:06.112Z,73.76
2022-12-03T18:22:36.099Z,73.89
2022-12-03T18:25:06.412Z,73.58
2022-12-03T18:27:36.098Z,74.15
2022-12-03T18:30:06.460Z,73.30
2022-12-03T18:32:33.301Z,73.30
2022-12-03T18:35:01.563Z,73.03
2022-12-03T18:37:34.570Z,72.40
2022-12-03T18:40:02.077Z,72.41
2022-12-03T18:42:32.642Z,73.11
2022-12-03T18:44:59.864Z,72.08
2022-12-03T18:47:31.124Z,73.34
2022-12-03T18:49:58.379Z,73.68
2022-12-03T18:52:25.687Z,73.73
2022-12-03T18:54:53.112Z,72.93
2022-12-03T18:57:20.194Z,73.06
2022-12-03T18:59:47.196Z,72.93
2022-12-03T19:05:09.053Z,74.26
2022-12-03T19:07:36.209Z,73.35
2022-12-03T19:10:04.310Z,73.85
2022-12-03T19:12:34.509Z,74.31
2022-12-03T19:15:05.379Z,75.52
2022-12-03T19:17:32.834Z,75.66
2022-12-03T19:20:01.876Z,75.72
2022-12-03T19:22:28.964Z,76.04
2022-12-03T19:24:55.970Z,75.01
2022-12-03T19:27:25.990Z,74.55
2022-12-03T19:29:53.290Z,75.85
2022-12-03T19:32:25.600Z,76.25
2022-12-03T19:34:55.037Z,76.64
2022-12-03T19:37:21.982Z,76.99
2022-12-03T19:39:53.783Z,77.01
2022-12-03T19:42:21.250Z,76.76
2022-12-03T19:44:48.251Z,77.77
2022-12-03T19:47:15.274Z,77.92
2022-12-03T19:49:42.413Z,77.83
2022-12-03T19:52:11.990Z,76.70
2022-12-03T19:54:41.213Z,76.35
2022-12-03T19:57:13.659Z,76.11
2022-12-03T19:59:43.072Z,76.29
2022-12-03T20:02:15.221Z,76.35
2022-12-03T20:04:42.249Z,76.89
2022-12-03T20:07:09.280Z,76.40
2022-12-03T20:09:36.304Z,76.83
2022-12-03T20:12:06.667Z,75.88
2022-12-03T20:14:38.796Z,76.71
2022-12-03T20:17:05.975Z,76.84
2022-12-03T20:19:33.015Z,76.78
2022-12-03T20:22:02.883Z,76.23
2022-12-03T20:24:32.719Z,77.13
2022-12-03T20:26:59.728Z,77.71
2022-12-03T20:29:26.755Z,77.35
2022-12-03T20:31:56.411Z,76.89
2022-12-03T20:34:23.385Z,76.92
2022-12-03T20:36:50.392Z,76.69
2022-12-03T20:39:17.443Z,75.76
2022-12-03T20:41:44.464Z,75.74
2022-12-03T20:44:14.535Z,76.00
2022-12-03T20:46:41.556Z,75.77
2022-12-03T20:49:08.627Z,74.95
2022-12-03T20:51:39.157Z,74.64
2022-12-03T20:54:11.710Z,73.66
2022-12-03T20:56:42.058Z,74.33
2022-12-03T20:59:14.296Z,73.95
2022-12-03T21:01:43.276Z,73.36
2022-12-03T21:04:14.559Z,72.76
2022-12-03T21:06:44.185Z,72.91
2022-12-03T21:09:14.045Z,80.38
2022-12-03T21:11:42.501Z,75.44
2022-12-03T21:14:11.156Z,74.86
2022-12-03T21:17:06.609Z,74.10
2022-12-03T21:19:27.030Z,73.52
2022-12-03T21:21:53.997Z,73.55
2022-12-03T21:24:21.134Z,72.76
2022-12-03T21:26:50.207Z,72.12
2022-12-03T21:29:18.190Z,72.81
2022-12-03T21:31:45.198Z,73.04
2022-12-03T21:34:12.408Z,73.36
2022-12-03T21:36:40.137Z,73.68
2022-12-03T21:39:09.747Z,73.02
2022-12-03T21:41:37.503Z,72.32
2022-12-03T21:44:04.778Z,73.02
2022-12-03T21:47:11.763Z,73.47
2022-12-03T21:49:22.608Z,72.71
2022-12-03T21:51:49.784Z,73.73
2022-12-03T21:54:16.745Z,73.15
2022-12-03T21:56:48.321Z,73.59
2022-12-03T21:59:15.398Z,73.16
2022-12-03T22:01:46.907Z,74.71
2022-12-03T22:04:14.410Z,74.20
2022-12-03T22:06:41.590Z,74.15
2022-12-03T22:09:10.419Z,73.65
2022-12-03T22:11:39.847Z,75.24
2022-12-03T22:14:12.303Z,74.80
2022-12-03T22:16:42.120Z,74.69
2022-12-03T22:19:10.678Z,74.56
2022-12-03T22:21:37.827Z,73.78
2022-12-03T22:24:13.617Z,73.76
2022-12-03T22:26:43.253Z,73.16
2022-12-03T22:29:13.613Z,74.74
2022-12-03T22:31:40.586Z,74.90
2022-12-03T22:34:10.389Z,74.33
2022-12-03T22:36:38.088Z,73.96
2022-12-03T22:39:07.432Z,73.96
2022-12-03T22:41:34.500Z,75.36
2022-12-03T22:44:03.942Z,74.90
2022-12-03T22:46:33.677Z,74.91
2022-12-03T22:49:07.061Z,75.37
2022-12-03T22:51:37.168Z,74.97
2022-12-03T22:54:05.605Z,74.54
2022-12-03T22:56:33.007Z,74.67
2022-12-03T22:59:01.360Z,74.10
2022-12-03T23:01:38.514Z,75.81
2022-12-03T23:04:08.737Z,75.60
2022-12-03T23:06:37.107Z,74.97
2022-12-03T23:09:06.457Z,73.85
2022-12-03T23:11:34.117Z,73.48
2022-12-03T23:14:06.809Z,73.13
2022-12-03T23:16:34.271Z,73.04
2022-12-03T23:19:03.421Z,73.65
2022-12-03T23:21:36.660Z,74.56
2022-12-03T23:24:06.661Z,74.50
2022-12-03T23:26:40.786Z,74.26
2022-12-03T23:29:08.574Z,74.74
2022-12-03T23:31:36.328Z,74.89
2022-12-03T23:34:05.946Z,75.10
2022-12-03T23:36:37.811Z,75.17
2022-12-03T23:39:05.101Z,74.37
2022-12-03T23:41:32.243Z,75.84
2022-12-03T23:43:59.341Z,76.10
2022-12-03T23:46:28.378Z,76.70
2022-12-03T23:48:58.428Z,75.87
2022-12-03T23:51:26.641Z,77.27
2022-12-03T23:53:55.672Z,76.51
2022-12-03T23:56:29.631Z,75.81
2022-12-03T23:58:58.217Z,75.88
